ADDS METAR Data INFO
IDs: Format: Raw Decoded Include TAF

Data at: 0029 UTC 23 Oct 2017

KSGS 230013Z AUTO 18003KT 10SM CLR 12/01 A2994 RMK AO2 T01170005
KSGS 222353Z AUTO 19003KT 10SM CLR 13/00 A2994 RMK AO2 T01310004 10175 20131
KSGS 222333Z AUTO 00000KT 10SM CLR 14/00 A2994 RMK AO2 T01381001
KSGS 222313Z AUTO 00000KT 10SM CLR 15/00 A2994 RMK AO2 T01481005
KSGS 222253Z AUTO 20003KT 10SM CLR 16/M01 A2993 RMK AO2 T01581007
KSGS 222233Z AUTO 24003KT 10SM CLR 16/00 A2994 RMK AO2 T01641005
KSGS 222213Z AUTO 25005KT 10SM CLR 17/M01 A2994 RMK AO2 T01681010
KSGS 222153Z AUTO 27008KT 10SM CLR 17/M01 A2994 RMK AO2 T01711012
KSGS 222133Z AUTO 25008KT 10SM CLR 17/M01 A2994 RMK AO2 T01721007
KSGS 222113Z AUTO 29007KT 10SM CLR 17/M01 A2995 RMK AO2 T01741009
KSGS 222053Z AUTO 26010KT 10SM CLR 17/M01 A2995 RMK AO2 T01741009
KSGS 222033Z AUTO 25007KT 10SM CLR 17/M01 A2995 RMK AO2 T01731011
KSGS 222013Z AUTO 26007KT 10SM CLR 17/00 A2995 RMK AO2 T01701001
KSGS 221953Z AUTO 27009G14KT 10SM CLR 17/00 A2995 RMK AO2 T01710004
KSGS 221933Z AUTO 25011G16KT 10SM CLR 17/01 A2995 RMK AO2 T01700005
KSGS 221913Z AUTO 27011G18KT 10SM CLR 16/01 A2996 RMK AO2 T01640009
KSGS 221853Z AUTO 26011KT 10SM CLR 16/02 A2997 RMK AO2 T01620020
KSGS 221833Z AUTO 28010KT 10SM CLR 16/02 A2997 RMK AO2 T01600022
KSGS 221813Z AUTO 25009KT 230V290 10SM CLR 16/04 A2998 RMK AO2 T01550037
KSGS 221753Z AUTO 26008KT 10SM CLR 15/03 A2999 RMK AO2 T01500031 10150 20091
KSGS 221733Z AUTO 28010KT 10SM CLR 14/03 A2999 RMK AO2 T01410034
KSGS 221713Z AUTO 26008KT 10SM CLR 14/04 A3000 RMK AO2 T01350038
KSGS 221653Z AUTO 26007KT 10SM CLR 12/05 A3000 RMK AO2 T01240046
KSGS 221633Z AUTO 26006KT 10SM CLR 12/05 A3001 RMK AO2 T01170047
KSGS 221613Z AUTO 24005KT 10SM CLR 11/05 A3000 RMK AO2 T01140053
KSGS 221553Z AUTO 24004KT 10SM CLR 11/05 A3000 RMK AO2 T01060050
KSGS 221533Z AUTO 25003KT 10SM CLR 10/05 A3000 RMK AO2 T01020050
KSGS 221513Z AUTO 25006KT 10SM CLR 10/05 A3000 RMK AO2 T01000051
KSGS 221453Z AUTO 26006KT 10SM CLR 10/05 A2999 RMK AO2 T00960050
KSGS 221433Z AUTO 27005KT 10SM CLR 10/05 A2997 RMK AO2 T00950050
KSGS 221413Z AUTO 26007KT 10SM CLR 09/05 A2997 RMK AO2 T00930049
KSGS 221353Z AUTO 27007KT 10SM CLR 09/05 A2997 RMK AO2 T00920050
KSGS 221333Z AUTO 26007KT 10SM CLR 09/05 A2997 RMK AO2 T00920050
KSGS 221313Z AUTO 25005KT 10SM CLR 09/05 A2997 RMK AO2 T00920051
KSGS 221253Z AUTO 25003KT 10SM CLR 09/05 A2996 RMK AO2 T00910051
KSGS 221233Z AUTO 24004KT 10SM CLR 09/05 A2995 RMK AO2 T00920051
KSGS 221213Z AUTO 25004KT 10SM CLR 09/05 A2994 RMK AO2 T00920050
KSGS 221153Z AUTO 23004KT 10SM CLR 10/05 A2994 RMK AO2 70034 T00950051 10113 20095
KSGS 221133Z AUTO 24003KT 10SM CLR 10/05 A2993 RMK AO2 T00950051
KSGS 221113Z AUTO 26004KT 10SM CLR 10/05 A2993 RMK AO2 T00950052
KSGS 221053Z AUTO 26004KT 10SM CLR 10/06 A2992 RMK AO2 T00960055
KSGS 221033Z AUTO 27005KT 10SM CLR 10/06 A2992 RMK AO2 T00970055
KSGS 221013Z AUTO 26006KT 10SM CLR 10/06 A2991 RMK AO2 T00970055
KSGS 220953Z AUTO 27008KT 10SM CLR 10/06 A2990 RMK AO2 T00970055
KSGS 220933Z AUTO 27006KT 10SM CLR 10/06 A2990 RMK AO2 T00970056
KSGS 220913Z AUTO 26007KT 10SM CLR 10/06 A2990 RMK AO2 T00980057
KSGS 220853Z AUTO 26008KT 10SM CLR 10/06 A2988 RMK AO2 T00980057
KSGS 220833Z AUTO 26005KT 10SM CLR 10/06 A2989 RMK AO2 T01000060
KSGS 220813Z AUTO 25007KT 10SM CLR 10/06 A2989 RMK AO2 T01010060
KSGS 220753Z AUTO 26005KT 10SM CLR 10/06 A2988 RMK AO2 T01010061
KSGS 220733Z AUTO 26007KT 10SM CLR 10/06 A2988 RMK AO2 T01020063
KSGS 220713Z AUTO 27007KT 10SM CLR 11/06 A2987 RMK AO2 T01050062
KSGS 220653Z AUTO 25004KT 10SM CLR 11/07 A2986 RMK AO2 T01050065
KSGS 220633Z AUTO 22003KT 10SM CLR 11/07 A2986 RMK AO2 T01060065
KSGS 220613Z AUTO 25003KT 10SM CLR 11/07 A2987 RMK AO2 T01110065
KSGS 220553Z AUTO 28004KT 10SM CLR 12/06 A2986 RMK AO2 60002 T01160062 10202 20115 402050115
KSGS 220533Z AUTO 28007KT 10SM CLR 12/06 A2985 RMK AO2 T01170064
KSGS 220513Z AUTO 28006KT 10SM CLR 12/07 A2985 RMK AO2 T01200067
KSGS 220453Z AUTO 28007KT 10SM CLR 12/07 A2984 RMK AO2 T01220070
KSGS 220433Z AUTO 28012G17KT 10SM SCT085 13/07 A2984 RMK AO2 T01250074
KSGS 220413Z AUTO 26008KT 10SM SCT075 BKN085 13/09 A2983 RMK AO2 T01300088
KSGS 220353Z AUTO 26008G14KT 10SM BKN075 13/10 A2981 RMK AO2 T01330099
KSGS 220333Z AUTO 26008KT 240V300 10SM OVC075 14/11 A2980 RMK AO2 LTG DSNT NE T01350108
KSGS 220313Z AUTO 23004KT 10SM SCT048 BKN065 OVC075 14/11 A2979 RMK AO2 T01360110
KSGS 220253Z AUTO 23003KT 10SM SCT036 OVC046 14/11 A2979 RMK AO2 60002 T01380105
KSGS 220233Z AUTO 26005G14KT 10SM BKN036 OVC044 14/10 A2977 RMK AO2 LTG DSNT E AND SE T01410101
KSGS 220213Z AUTO 29007KT 10SM OVC034 14/10 A2975 RMK AO2 T01430101
KSGS 220153Z AUTO 29008G15KT 10SM BKN031 BKN050 14/10 A2973 RMK AO2 LTG DSNT SE T01430103 P0002
KSGS 220133Z AUTO 29011G16KT 10SM SCT033 SCT060 SCT095 14/11 A2974 RMK AO2 LTG DSNT SE T01420105 P0002
KSGS 220113Z AUTO 27011G17KT 10SM SCT023 SCT030 BKN060 14/11 A2974 RMK AO2 LTG DSNT S T01430113 P0002
KSGS 220053Z AUTO 27009G18KT 10SM BKN023 BKN030 OVC080 15/14 A2973 RMK AO2 LTG DSNT S T01460140 P0002
KSGS 220033Z AUTO 26019G23KT 7SM -RA SCT026 BKN033 OVC041 18/16 A2972 RMK AO2 LTG DSNT S T01780159 P0002
KSGS 220013Z AUTO 18011G20KT 10SM SCT027 BKN041 OVC090 20/16 A2970 RMK AO2 T02010157
KSGS 212353Z AUTO 17013G20KT 10SM SCT041 BKN049 OVC095 20/16 A2968 RMK AO2 LTG DSNT N T02020157 10205 20174
KSGS 212333Z AUTO 17011G20KT 10SM SCT049 SCT080 BKN090 20/16 A2969 RMK AO2 LTG DSNT N T02010157
KSGS 212313Z AUTO 17010G19KT 10SM BKN049 BKN080 20/16 A2967 RMK AO2 T02010157
KSGS 212253Z AUTO 16012G19KT 10SM SCT025 BKN049 OVC080 21/16 A2968 RMK AO2 LTG DSNT NW T02050156
KSGS 212233Z AUTO 17012G24KT 10SM OVC029 21/16 A2968 RMK AO2 T02050158
KSGS 212213Z AUTO 19018G25KT 10SM OVC026 20/16 A2967 RMK AO2 LTG DSNT W T02030158
KSGS 212153Z AUTO 17015G24KT 10SM BKN026 BKN031 20/16 A2966 RMK AO2 LTG DSNT SW T02020159
KSGS 212133Z AUTO 17016G24KT 10SM BKN024 20/16 A2964 RMK AO2 T02000159
KSGS 212113Z AUTO 17014G21KT 10SM BKN024 BKN032 20/16 A2965 RMK AO2 T01980160
KSGS 212053Z AUTO 16014G21KT 10SM OVC022 20/16 A2967 RMK AO2 T01950160
KSGS 212033Z AUTO 17012G21KT 10SM OVC020 19/16 A2968 RMK AO2 T01920161
KSGS 212013Z AUTO 17013G23KT 10SM OVC020 19/16 A2968 RMK AO2 T01910161
KSGS 211953Z AUTO 17013G21KT 10SM OVC018 19/16 A2968 RMK AO2 T01900161
KSGS 211933Z AUTO 17013G19KT 10SM OVC018 19/16 A2968 RMK AO2 T01880161
KSGS 211913Z AUTO 16013G22KT 10SM OVC018 19/16 A2968 RMK AO2 T01880161
KSGS 211853Z AUTO 16011G19KT 10SM OVC018 19/16 A2968 RMK AO2 T01880162
KSGS 211833Z AUTO 18013G21KT 10SM OVC018 19/17 A2968 RMK AO2 T01860166
KSGS 211813Z AUTO 17013G21KT 10SM OVC016 18/17 A2968 RMK AO2 T01820172
KSGS 211753Z AUTO 17013G18KT 10SM OVC016 17/17 A2968 RMK AO2 60032 T01720172 10172 20147
KSGS 211733Z AUTO 17012G19KT 10SM OVC016 17/17 A2969 RMK AO2 T01660166
KSGS 211713Z AUTO 16012G18KT 10SM OVC016 16/16 A2969 RMK AO2 T01630163
KSGS 211653Z AUTO 16017G26KT 10SM OVC014 16/16 A2969 RMK AO2 T01590159 P0006
KSGS 211633Z AUTO 16011G18KT 10SM BKN014 16/16 A2969 RMK AO2 T01580158 P0006
KSGS 211613Z AUTO 16012G17KT 10SM BKN014 BKN021 16/16 A2970 RMK AO2 LTG DSNT E T01550155 P0006
KSGS 211553Z AUTO 16009G14KT 10SM -RA BKN016 BKN022 OVC075 15/15 A2970 RMK AO2 LTG DSNT S T01530153 P0006
KSGS 211533Z AUTO 16009G18KT 10SM -RA SCT014 BKN033 OVC075 15/15 A2970 RMK AO2 T01520152 P0005
KSGS 211513Z AUTO 17014G24KT 4SM -RA BKN012 BKN020 OVC030 15/15 A2969 RMK AO2 LTG DSNT S AND NW T01520152 P0004
KSGS 211453Z AUTO 17012G18KT 4SM RA OVC014 15/15 A2969 RMK AO2 LTG DSNT S AND SW 60024 T01530153 P0013
KSGS 211433Z AUTO 17015G22KT 5SM -RA OVC014 15/15 A2970 RMK AO2 LTG DSNT SW T01520152 P0005
KSGS 211413Z AUTO 16010G17KT 10SM -RA OVC016 15/15 A2970 RMK AO2 LTG DSNT SW T01510151 P0002
KSGS 211353Z AUTO 16010G16KT 5SM -RA OVC018 15/15 A2970 RMK AO2 LTG DSNT SW T01500150 P0001
KSGS 211333Z AUTO 15007KT 10SM OVC018 15/15 A2970 RMK AO2 LTG DSNT SE T01500150 P0010
KSGS 211313Z AUTO 15007KT 10SM VCTS BKN020 OVC025 15/15 A2970 RMK AO2 LTG DSNT E S AND NW T01500150 P0010
KSGS 211253Z AUTO 16009KT 7SM -RA BKN016 OVC025 15/15 A2970 RMK AO2 LTG DSNT N T01480148 P0010
KSGS 211233Z AUTO 15006KT 10SM -RA BKN016 OVC024 15/15 A2970 RMK AO2 LTG DSNT W THRU NE T01480148 P0007